Time;durP1;ratioP1;P1;durP2;ratioP2;P2;SDS_P1;SDS_P2;PMS_P1;PMS_P2;Temp;Humidity;BMP_temperature;BMP_pressure;BME280_temperature;BME280_humidity;BME280_pressure;Samples;Min_cycle;Max_cycle;Signal;HPM_P1;HPM_P2
2022/12/14 00:01:09;;;;;;;1.63;0.80;;;;;;;12.91;45.48;101833.34;5031305;28;20029;-65
2022/12/14 00:03:36;;;;;;;1.75;0.80;;;;;;;12.84;46.23;101840.53;5032743;23;20068;-67
2022/12/14 00:06:18;;;;;;;4.20;1.50;;;;;;;12.69;46.62;101845.16;5005170;28;20030;-62
2022/12/14 00:08:46;;;;;;;2.58;1.23;;;;;;;12.42;48.62;101846.81;4992660;28;20462;-62
2022/12/14 00:11:15;;;;;;;1.55;1.10;;;;;;;12.45;49.17;101849.13;5004733;28;20053;-66
2022/12/14 00:13:42;;;;;;;2.55;1.25;;;;;;;12.40;49.95;101846.19;5012290;28;20029;-66
2022/12/14 00:16:16;;;;;;;2.28;1.50;;;;;;;12.39;50.44;101858.78;5012636;28;20026;-66
2022/12/14 00:18:43;;;;;;;5.15;1.90;;;;;;;12.42;51.57;101854.84;4994622;28;20042;-66
2022/12/14 00:21:12;;;;;;;6.85;3.00;;;;;;;12.20;53.37;101862.09;4973289;28;20046;-66
2022/12/14 00:23:40;;;;;;;6.32;2.85;;;;;;;12.07;54.43;101856.59;4973432;28;20538;-66
2022/12/14 00:26:12;;;;;;;7.90;3.15;;;;;;;12.04;55.01;101854.28;4973115;28;20542;-67
2022/12/14 00:28:39;;;;;;;7.80;3.40;;;;;;;12.03;55.14;101845.41;4973321;28;20023;-66
2022/12/14 00:31:06;;;;;;;7.13;3.15;;;;;;;11.95;55.61;101844.72;4972945;28;20034;-67
2022/12/14 00:33:33;;;;;;;6.05;3.22;;;;;;;11.86;56.11;101847.50;4972088;28;20114;-67
2022/12/14 00:36:00;;;;;;;5.28;3.58;;;;;;;11.76;56.98;101854.16;4970854;28;20037;-66
2022/12/14 00:38:27;;;;;;;8.93;3.53;;;;;;;11.74;56.84;101864.25;4988909;28;20069;-66
2022/12/14 00:40:54;;;;;;;5.28;3.53;;;;;;;11.79;57.83;101869.88;4983204;28;20401;-66
2022/12/14 00:43:21;;;;;;;7.13;4.10;;;;;;;11.64;57.95;101870.75;4992979;28;20061;-66
2022/12/14 00:45:47;;;;;;;7.72;3.47;;;;;;;11.61;58.13;101868.44;5006753;28;20560;-67
2022/12/14 00:48:14;;;;;;;3.90;2.60;;;;;;;11.60;58.75;101871.28;5012235;28;20034;-66
2022/12/14 00:50:40;;;;;;;7.45;2.95;;;;;;;11.66;59.57;101875.06;5010412;28;20120;-66
2022/12/14 00:53:08;;;;;;;3.42;2.40;;;;;;;11.53;59.92;101878.44;4988249;28;20023;-66
2022/12/14 00:55:38;;;;;;;6.50;2.40;;;;;;;11.42;59.80;101876.22;4972965;28;20484;-66
2022/12/14 00:58:05;;;;;;;4.78;2.58;;;;;;;11.31;60.71;101883.72;5005533;28;20029;-66
2022/12/14 01:00:32;;;;;;;9.52;2.53;;;;;;;11.34;60.51;101882.53;5011907;28;20033;-66
2022/12/14 01:02:58;;;;;;;4.53;2.03;;;;;;;11.36;60.67;101894.72;5002959;28;20085;-67
2022/12/14 01:05:24;;;;;;;4.38;2.15;;;;;;;11.20;60.85;101894.91;4992214;28;20026;-67
2022/12/14 01:07:50;;;;;;;3.17;1.95;;;;;;;11.12;60.89;101895.00;4992660;28;20049;-66
2022/12/14 01:10:17;;;;;;;4.47;1.60;;;;;;;11.18;60.68;101894.25;4979635;28;20120;-66
2022/12/14 01:12:43;;;;;;;3.53;1.50;;;;;;;11.12;60.17;101905.72;4973837;28;20027;-68
2022/12/14 01:15:10;;;;;;;6.00;1.70;;;;;;;10.92;60.46;101901.88;4974297;28;20383;-67
2022/12/14 01:17:36;;;;;;;3.08;1.63;;;;;;;10.92;60.39;101904.56;4973435;28;20030;-67
2022/12/14 01:20:03;;;;;;;4.18;1.75;;;;;;;10.79;60.36;101906.03;4977263;28;20033;-64
2022/12/14 01:22:29;;;;;;;5.15;1.98;;;;;;;10.63;61.22;101910.69;4998776;28;20131;-66
2022/12/14 01:24:56;;;;;;;4.38;1.65;;;;;;;10.69;61.17;101909.97;4995932;28;20031;-66
2022/12/14 01:27:22;;;;;;;3.85;1.95;;;;;;;10.55;61.56;101908.94;4989045;28;20475;-66
2022/12/14 01:29:48;;;;;;;3.10;1.80;;;;;;;10.37;62.55;101911.88;4995738;28;20067;-65
2022/12/14 01:32:14;;;;;;;6.75;2.50;;;;;;;10.01;64.03;101914.28;4995557;28;20030;-65
2022/12/14 01:34:40;;;;;;;5.53;2.22;;;;;;;10.11;63.26;101916.72;4995593;28;20080;-66
2022/12/14 01:37:07;;;;;;;5.93;2.90;;;;;;;10.13;63.06;101922.72;4995559;28;20117;-66
2022/12/14 01:39:33;;;;;;;5.18;1.98;;;;;;;10.05;63.69;101927.13;4995988;28;20068;-66
2022/12/14 01:41:59;;;;;;;6.30;2.00;;;;;;;10.02;63.31;101929.31;4994738;28;20034;-66
2022/12/14 01:44:25;;;;;;;2.60;1.80;;;;;;;9.94;63.35;101930.19;4982113;28;20073;-66
2022/12/14 01:47:21;;;;;;;3.22;1.63;;;;;;;9.85;63.82;101930.41;4976214;28;20026;-66
2022/12/14 01:50:13;;;;;;;3.47;1.88;;;;;;;9.73;64.01;101941.47;4972304;28;20515;-66
2022/12/14 01:52:46;;;;;;;3.42;1.90;;;;;;;9.31;65.53;101948.97;4976129;28;20026;-66
2022/12/14 01:55:18;;;;;;;4.95;2.40;;;;;;;8.96;66.46;101951.03;4975851;28;20099;-66
2022/12/14 01:57:56;;;;;;;5.22;2.22;;;;;;;8.73;67.16;101949.03;4975870;28;20105;-66
2022/12/14 02:00:23;;;;;;;4.32;2.00;;;;;;;7.96;70.61;101952.03;4976410;28;20038;-66
2022/12/14 02:03:06;;;;;;;6.00;2.03;;;;;;;7.65;72.41;101953.41;4975341;28;20114;-65
2022/12/14 02:05:37;;;;;;;3.63;1.92;;;;;;;7.61;72.38;101956.56;4974517;28;20475;-66
2022/12/14 02:08:05;;;;;;;12.02;1.90;;;;;;;7.25;73.64;101956.69;4975900;28;20558;-66
2022/12/14 02:10:32;;;;;;;5.50;1.92;;;;;;;7.18;74.19;101960.97;4992336;28;20065;-66
2022/12/14 02:13:09;;;;;;;5.80;2.92;;;;;;;7.29;73.93;101952.72;4994921;28;20072;-66
2022/12/14 02:15:37;;;;;;;4.22;2.15;;;;;;;7.39;73.67;101952.63;4995291;28;20018;-65
2022/12/14 02:18:08;;;;;;;5.53;2.05;;;;;;;7.14;74.18;101951.59;4983700;28;20038;-66
2022/12/14 02:21:08;;;;;;;4.40;2.17;;;;;;;7.76;72.23;101962.09;4975179;28;20359;-66
2022/12/14 02:23:51;;;;;;;3.58;2.13;;;;;;;7.70;71.79;101966.25;4984556;28;20029;-66
2022/12/14 02:26:48;;;;;;;4.25;2.45;;;;;;;7.56;72.25;101965.03;4994881;28;20030;-66
2022/12/14 02:29:55;;;;;;;5.32;2.92;;;;;;;7.59;71.89;101963.84;4994609;28;20034;-66
2022/12/14 02:32:55;;;;;;;4.25;2.10;;;;;;;7.49;72.21;101969.28;4981406;28;20046;-66
2022/12/14 02:35:41;;;;;;;3.67;1.98;;;;;;;7.46;72.70;101974.94;4975826;28;20108;-65
2022/12/14 02:38:31;;;;;;;5.63;2.20;;;;;;;7.44;72.86;101976.09;4990933;28;20153;-66
2022/12/14 02:41:15;;;;;;;5.13;2.30;;;;;;;7.55;71.96;101978.47;4994268;28;20031;-65
2022/12/14 02:43:44;;;;;;;3.00;2.20;;;;;;;7.29;72.78;101986.50;4994255;28;20077;-65
2022/12/14 02:46:20;;;;;;;3.22;1.95;;;;;;;7.31;72.48;101992.50;4993999;28;20026;-66
2022/12/14 02:48:56;;;;;;;2.28;1.60;;;;;;;7.27;72.60;101994.63;4994525;28;20026;-65
2022/12/14 02:51:52;;;;;;;4.03;2.63;;;;;;;6.97;73.21;101995.06;4993871;28;20056;-65
2022/12/14 02:54:30;;;;;;;4.28;2.75;;;;;;;6.81;74.47;102012.56;4994564;28;20072;-65
2022/12/14 02:57:08;;;;;;;6.47;2.88;;;;;;;6.90;73.95;102018.81;4994368;28;20030;-65
2022/12/14 02:59:35;;;;;;;4.72;2.30;;;;;;;6.95;74.30;102026.34;4993265;28;20037;-65
2022/12/14 03:02:03;;;;;;;4.78;2.20;;;;;;;6.90;74.02;102026.81;4993943;28;20053;-65
2022/12/14 03:04:29;;;;;;;4.10;1.63;;;;;;;6.93;74.28;102030.97;4993927;28;20042;-66
2022/12/14 03:07:03;;;;;;;2.65;1.40;;;;;;;6.95;74.05;102021.03;4993890;28;20018;-66
2022/12/14 03:09:31;;;;;;;4.82;1.63;;;;;;;7.14;72.99;102021.66;4985312;28;20042;-67
2022/12/14 03:12:09;;;;;;;12.27;1.70;;;;;;;6.67;75.26;102031.75;5013467;28;20040;-66
2022/12/14 03:14:50;;;;;;;4.13;1.30;;;;;;;7.00;73.67;102032.88;5003035;28;20106;-66
2022/12/14 03:17:21;;;;;;;5.57;1.95;;;;;;;6.38;76.48;102029.25;4993530;28;20030;-66
2022/12/14 03:19:51;;;;;;;3.17;1.55;;;;;;;6.18;77.85;102027.72;4993981;28;20121;-66
2022/12/14 03:22:31;;;;;;;4.68;1.80;;;;;;;6.70;76.00;102033.25;4993401;28;20077;-66
2022/12/14 03:25:05;;;;;;;3.67;1.80;;;;;;;6.42;77.59;102029.81;4991712;28;20068;-66
2022/12/14 03:27:37;;;;;;;3.42;1.77;;;;;;;6.38;77.40;102034.56;4974294;28;20073;-66
2022/12/14 03:30:08;;;;;;;4.50;1.83;;;;;;;6.42;77.34;102033.28;4974342;28;20376;-66
2022/12/14 03:32:40;;;;;;;7.07;1.95;;;;;;;6.33;77.59;102045.69;4973823;28;20027;-66
2022/12/14 03:35:12;;;;;;;6.20;2.20;;;;;;;6.45;77.22;102046.31;4974285;28;20038;-66
2022/12/14 03:37:56;;;;;;;4.18;2.05;;;;;;;6.56;76.37;102046.09;4973881;28;20105;-66
2022/12/14 03:40:31;;;;;;;2.92;1.30;;;;;;;6.70;75.49;102049.22;4973821;28;20034;-66
2022/12/14 03:43:09;;;;;;;5.22;2.03;;;;;;;6.59;75.48;102051.09;4973924;28;20031;-66
2022/12/14 03:45:50;;;;;;;4.13;1.67;;;;;;;6.48;75.87;102053.13;4974098;28;20037;-64
2022/12/14 03:48:30;;;;;;;5.10;1.90;;;;;;;5.95;78.11;102054.69;4974003;28;20527;-65
2022/12/14 03:51:14;;;;;;;2.40;1.83;;;;;;;6.17;77.41;102050.81;4973611;28;20090;-64
2022/12/14 03:54:02;;;;;;;4.78;2.17;;;;;;;6.26;76.46;102049.06;4973490;28;20050;-64
2022/12/14 03:56:44;;;;;;;4.82;2.28;;;;;;;6.27;76.28;102048.06;4973894;28;20030;-66
2022/12/14 03:59:16;;;;;;;5.45;2.17;;;;;;;6.24;75.86;102040.41;4974450;28;20049;-66
2022/12/14 04:01:46;;;;;;;3.95;1.98;;;;;;;5.95;76.99;102048.53;4973374;28;20492;-66
2022/12/14 04:04:19;;;;;;;4.38;1.80;;;;;;;5.70;77.69;102048.16;4973401;28;20047;-65
2022/12/14 04:07:19;;;;;;;3.88;1.45;;;;;;;5.39;79.06;102042.22;4973586;28;20034;-66
2022/12/14 04:18:55;;;;;;;3.28;1.63;;;;;;;5.12;80.85;102042.13;4982710;28;20025;-62
2022/12/14 04:18:55;;;;;;;4.65;1.42;;;;;;;5.47;79.07;102052.13;4973497;28;20042;-64
2022/12/14 04:21:56;;;;;;;4.22;1.63;;;;;;;5.66;78.23;102064.50;4973392;28;20054;-63
2022/12/14 04:27:33;;;;;;;4.18;2.20;;;;;;;5.70;77.47;102063.25;4973414;28;20092;-66
2022/12/14 04:30:02;;;;;;;2.17;1.67;;;;;;;5.74;77.28;102064.66;4973300;28;20494;-66
2022/12/14 04:32:40;;;;;;;3.22;1.60;;;;;;;5.86;76.73;102058.16;4973125;28;20551;-65
2022/12/14 04:35:11;;;;;;;6.35;1.75;;;;;;;5.89;76.57;102057.88;4992444;28;20022;-67
2022/12/14 04:37:42;;;;;;;5.38;1.80;;;;;;;5.89;76.38;102067.69;4992642;28;20037;-65
2022/12/14 04:40:11;;;;;;;2.33;1.58;;;;;;;5.90;76.10;102056.91;4992570;28;20033;-65
2022/12/14 04:42:53;;;;;;;4.97;2.08;;;;;;;5.84;76.11;102054.81;4992578;28;20027;-65
2022/12/14 04:45:51;;;;;;;3.05;1.90;;;;;;;5.84;76.03;102049.50;4991456;28;20510;-65
2022/12/14 04:48:31;;;;;;;4.57;2.40;;;;;;;6.04;74.47;102058.25;4987481;28;20069;-65
2022/12/14 04:51:17;;;;;;;5.10;1.67;;;;;;;5.87;74.81;102053.69;4982355;28;20041;-65
2022/12/14 04:53:47;;;;;;;3.88;1.98;;;;;;;5.90;74.52;102051.59;4982308;28;20027;-66
2022/12/14 04:56:20;;;;;;;3.25;1.90;;;;;;;5.94;74.57;102058.31;4996156;28;20054;-65
2022/12/14 04:58:46;;;;;;;7.97;2.60;;;;;;;5.93;74.66;102067.25;4996512;28;20038;-65
2022/12/14 05:01:21;;;;;;;6.95;2.90;;;;;;;5.74;75.38;102068.13;4996353;28;20097;-65
2022/12/14 05:04:01;;;;;;;7.07;3.17;;;;;;;5.69;75.38;102072.19;4996247;28;20122;-65
2022/12/14 05:06:40;;;;;;;10.52;2.60;;;;;;;5.69;75.32;102074.88;4996052;28;20046;-65
2022/12/14 05:09:31;;;;;;;4.47;2.80;;;;;;;5.64;75.16;102079.75;4996075;28;20026;-65
2022/12/14 05:12:20;;;;;;;7.60;2.67;;;;;;;5.59;74.97;102080.19;4996005;28;20109;-65
2022/12/14 05:15:01;;;;;;;4.97;2.50;;;;;;;5.52;75.17;102084.41;4995993;28;20052;-65
2022/12/14 05:17:27;;;;;;;6.00;3.10;;;;;;;5.47;75.12;102084.81;4996552;28;20057;-65
2022/12/14 05:19:54;;;;;;;9.48;4.82;;;;;;;5.61;74.59;102085.34;4995944;28;20097;-65
2022/12/14 05:22:21;;;;;;;7.40;5.05;;;;;;;5.39;75.39;102092.69;4995507;28;20033;-66
2022/12/14 05:24:47;;;;;;;6.43;4.72;;;;;;;5.37;75.32;102089.31;4994486;28;20451;-65
2022/12/14 05:27:14;;;;;;;7.18;4.10;;;;;;;5.35;75.58;102093.94;4995866;28;20030;-65
2022/12/14 05:29:40;;;;;;;13.30;5.53;;;;;;;5.39;75.41;102105.94;4996096;28;20026;-65
2022/12/14 05:32:08;;;;;;;6.68;4.25;;;;;;;5.35;75.27;102103.72;4995088;28;20038;-65
2022/12/14 05:34:34;;;;;;;7.05;4.40;;;;;;;5.29;75.35;102102.47;4994391;28;20444;-65
2022/12/14 05:37:00;;;;;;;9.25;4.32;;;;;;;5.25;75.62;102103.72;4995627;28;20430;-66
2022/12/14 05:39:26;;;;;;;6.30;4.22;;;;;;;5.22;76.00;102102.19;4995674;28;20713;-65
2022/12/14 05:41:53;;;;;;;5.28;4.43;;;;;;;5.18;75.92;102107.91;4985854;28;20106;-65
2022/12/14 05:44:19;;;;;;;7.65;4.13;;;;;;;5.21;75.68;102108.44;4975928;28;20018;-65
2022/12/14 05:46:46;;;;;;;5.50;3.63;;;;;;;5.11;75.82;102106.78;4976054;28;20488;-65
2022/12/14 05:49:13;;;;;;;7.10;3.30;;;;;;;5.11;75.66;102104.13;4976074;28;20027;-65
2022/12/14 05:51:40;;;;;;;5.03;2.97;;;;;;;5.07;75.76;102105.41;4975638;28;20038;-65
2022/12/14 05:54:06;;;;;;;4.07;2.30;;;;;;;5.02;75.73;102113.75;4994212;28;20412;-65
2022/12/14 05:56:32;;;;;;;5.75;2.30;;;;;;;4.99;76.02;102114.88;4995046;28;20493;-65
2022/12/14 05:58:58;;;;;;;3.05;2.22;;;;;;;4.97;76.10;102118.66;4985068;28;20069;-65
2022/12/14 06:01:25;;;;;;;5.65;2.60;;;;;;;4.92;76.02;102120.88;4980663;28;20045;-65
2022/12/14 06:03:52;;;;;;;4.57;2.40;;;;;;;4.89;76.01;102137.91;4994925;28;20129;-65
2022/12/14 06:06:18;;;;;;;5.20;2.15;;;;;;;4.84;76.06;102134.84;4994396;28;20359;-65
2022/12/14 06:08:45;;;;;;;5.40;2.13;;;;;;;4.89;76.09;102132.63;4995032;28;20030;-63
2022/12/14 06:11:14;;;;;;;3.58;1.80;;;;;;;4.87;76.05;102134.53;4994920;28;20073;-65
2022/12/14 06:13:41;;;;;;;5.40;1.52;;;;;;;5.12;76.37;102138.50;4991052;28;20030;-65
2022/12/14 06:16:12;;;;;;;8.63;1.90;;;;;;;4.98;76.75;102138.88;4978451;28;20027;-65
2022/12/14 06:18:50;;;;;;;4.30;1.98;;;;;;;5.07;77.12;102134.59;4975857;28;20553;-64
2022/12/14 06:21:20;;;;;;;4.40;1.92;;;;;;;4.87;77.59;102141.66;4975409;28;20037;-65
2022/12/14 06:24:06;;;;;;;8.45;2.22;;;;;;;4.94;76.83;102141.00;4975486;28;20023;-65
2022/12/14 06:26:35;;;;;;;;;;;;;;;4.79;77.11;102136.22;4973566;28;20114;-65
2022/12/14 06:29:02;;;;;;;5.32;2.10;;;;;;;4.78;77.27;102146.00;4973091;28;20012;-64
2022/12/14 06:31:32;;;;;;;4.35;2.80;;;;;;;4.78;76.84;102146.00;4972841;28;20074;-65
2022/12/14 06:34:00;;;;;;;4.53;3.42;;;;;;;4.66;77.03;102155.00;4972920;28;20034;-65
2022/12/14 06:36:48;;;;;;;5.18;3.58;;;;;;;4.63;76.95;102152.66;4973109;28;20030;-64
2022/12/14 06:39:15;;;;;;;5.03;4.25;;;;;;;4.65;76.85;102154.16;4953433;29;20482;-64
2022/12/14 06:41:42;;;;;;;6.25;4.40;;;;;;;4.69;76.95;102160.06;4950869;29;20035;-65
2022/12/14 06:44:13;;;;;;;5.95;5.35;;;;;;;4.71;76.72;102161.59;4953405;29;20039;-64
2022/12/14 06:46:40;;;;;;;6.95;4.68;;;;;;;4.54;76.89;102156.94;4945509;29;20027;-64
2022/12/14 06:49:06;;;;;;;7.10;4.80;;;;;;;4.54;77.15;102156.09;4937646;29;20039;-65
2022/12/14 06:51:39;;;;;;;6.65;3.83;;;;;;;4.67;76.87;102165.50;4950008;29;20043;-64
2022/12/14 06:54:06;;;;;;;5.75;3.47;;;;;;;4.55;77.54;102155.94;4934295;29;20040;-65
2022/12/14 06:56:32;;;;;;;3.92;2.10;;;;;;;4.41;78.80;102162.47;4933889;29;20524;-65
2022/12/14 06:58:59;;;;;;;3.25;1.70;;;;;;;4.47;78.16;102164.59;4934302;29;20086;-65
2022/12/14 07:01:25;;;;;;;3.97;1.80;;;;;;;4.43;78.12;102167.63;4933622;29;20032;-65
2022/12/14 07:03:58;;;;;;;3.33;1.92;;;;;;;4.49;77.76;102165.28;4942228;28;20043;-65
2022/12/14 07:06:26;;;;;;;3.90;2.47;;;;;;;4.64;77.53;102176.38;4953675;28;20107;-65
2022/12/14 07:08:57;;;;;;;12.15;6.50;;;;;;;4.46;77.78;102189.44;4953101;29;20034;-65
2022/12/14 07:11:28;;;;;;;9.30;8.30;;;;;;;4.44;77.99;102186.06;4990223;28;20125;-65
2022/12/14 07:13:55;;;;;;;10.85;8.90;;;;;;;4.53;77.33;102189.72;4988918;28;20065;-65
2022/12/14 07:16:24;;;;;;;16.00;13.50;;;;;;;4.34;77.70;102185.19;4998294;28;20058;-64
2022/12/14 07:18:52;;;;;;;13.00;11.25;;;;;;;4.36;77.91;102191.19;5013314;28;20115;-64
2022/12/14 07:21:19;;;;;;;16.02;12.95;;;;;;;4.79;76.71;102184.81;4973957;28;20511;-65
2022/12/14 07:23:48;;;;;;;17.58;11.90;;;;;;;4.20;79.33;102185.53;4975098;28;20110;-64
2022/12/14 07:26:17;;;;;;;12.38;11.07;;;;;;;4.19;79.13;102179.38;4974285;28;20031;-64
2022/12/14 07:28:45;;;;;;;9.50;7.68;;;;;;;4.29;79.13;102187.41;4974136;28;20030;-64
2022/12/14 07:31:21;;;;;;;10.40;8.63;;;;;;;4.19;78.96;102186.50;4976114;28;20030;-65
2022/12/14 07:33:48;;;;;;;12.52;10.75;;;;;;;4.39;78.18;102182.97;5013005;28;20133;-63
2022/12/14 07:36:17;;;;;;;13.38;11.98;;;;;;;4.13;78.77;102187.03;5013146;28;20029;-64
2022/12/14 07:38:45;;;;;;;15.55;12.05;;;;;;;4.33;78.30;102188.81;4992542;28;20073;-65
2022/12/14 07:41:14;;;;;;;12.55;10.45;;;;;;;4.11;79.53;102181.88;4978370;28;20117;-65
2022/12/14 07:43:42;;;;;;;11.52;10.32;;;;;;;4.13;79.26;102181.72;4974536;28;20034;-65
2022/12/14 07:46:11;;;;;;;12.45;8.95;;;;;;;4.11;79.11;102179.22;4993426;28;20022;-65
2022/12/14 07:48:37;;;;;;;8.73;4.10;;;;;;;4.04;79.50;102182.50;4992255;28;20084;-64
2022/12/14 07:51:09;;;;;;;5.35;3.92;;;;;;;4.10;79.51;102177.50;4977730;28;20069;-65
2022/12/14 07:53:37;;;;;;;4.35;2.92;;;;;;;4.06;79.59;102186.72;4976813;28;20019;-65
2022/12/14 07:56:08;;;;;;;3.58;2.20;;;;;;;3.87;81.11;102176.81;4973855;28;20083;-65
2022/12/14 07:58:36;;;;;;;2.92;1.60;;;;;;;3.88;80.33;102189.09;4988872;28;20026;-65
2022/12/14 08:01:18;;;;;;;5.90;1.67;;;;;;;4.03;79.57;102183.47;4988719;28;20038;-65
2022/12/14 08:04:08;;;;;;;5.93;1.75;;;;;;;4.03;80.07;102180.81;4994868;28;20049;-65
2022/12/14 08:06:35;;;;;;;1.92;1.27;;;;;;;4.04;79.93;102185.16;5004364;28;20173;-65
2022/12/14 08:09:02;;;;;;;4.82;1.38;;;;;;;4.00;79.92;102186.38;4990524;28;20045;-64
2022/12/14 08:11:28;;;;;;;2.97;1.25;;;;;;;4.10;79.64;102184.63;4981885;28;20046;-64
2022/12/14 08:13:57;;;;;;;3.95;1.27;;;;;;;4.09;79.68;102182.94;5005590;28;20037;-64
2022/12/14 08:16:24;;;;;;;5.22;1.25;;;;;;;4.04;79.92;102182.50;4992835;28;20648;-64
2022/12/14 08:18:53;;;;;;;3.60;1.45;;;;;;;4.06;79.98;102188.53;4987746;28;20034;-64
2022/12/14 08:21:21;;;;;;;3.28;1.35;;;;;;;3.96;80.21;102183.16;4997057;28;20038;-65
2022/12/14 08:23:48;;;;;;;2.38;1.17;;;;;;;4.13;79.87;102189.69;5012513;28;20026;-64
2022/12/14 08:26:15;;;;;;;2.42;1.13;;;;;;;4.02;80.06;102190.59;4993182;28;20034;-64
2022/12/14 08:28:41;;;;;;;3.63;1.30;;;;;;;3.78;81.18;102190.84;4992742;28;20027;-64
2022/12/14 08:31:13;;;;;;;5.22;1.27;;;;;;;3.82;81.50;102202.00;4988846;28;20037;-64
2022/12/14 08:33:41;;;;;;;3.78;1.50;;;;;;;3.84;81.91;102198.28;4973473;28;20110;-64
2022/12/14 08:36:13;;;;;;;4.10;1.20;;;;;;;3.85;81.20;102199.13;4974070;28;20027;-64
2022/12/14 08:38:40;;;;;;;4.35;1.40;;;;;;;4.03;80.03;102196.72;5012142;28;20486;-64
2022/12/14 08:41:14;;;;;;;1.70;1.02;;;;;;;3.98;80.35;102205.06;4992575;28;20026;-64
2022/12/14 08:43:40;;;;;;;4.88;1.10;;;;;;;3.98;80.10;102208.53;4973124;28;20046;-64
2022/12/14 08:46:08;;;;;;;1.40;1.00;;;;;;;4.18;79.39;102206.88;4973014;28;20435;-64
2022/12/14 08:48:34;;;;;;;2.35;0.82;;;;;;;3.93;80.17;102208.09;4972602;28;20022;-64
2022/12/14 08:51:10;;;;;;;3.30;1.00;;;;;;;3.69;81.47;102204.84;4972812;28;20555;-64
2022/12/14 08:53:37;;;;;;;2.47;0.85;;;;;;;3.74;82.23;102209.78;4973076;28;20031;-64
2022/12/14 08:56:09;;;;;;;6.22;1.20;;;;;;;3.61;82.43;102218.75;4972914;28;20463;-64
2022/12/14 08:58:36;;;;;;;3.05;1.20;;;;;;;3.69;82.17;102220.75;4972955;28;20026;-64
2022/12/14 09:01:26;;;;;;;1.98;1.15;;;;;;;3.98;81.50;102227.09;4972661;28;20061;-64
2022/12/14 09:03:52;;;;;;;1.48;0.82;;;;;;;3.91;81.04;102222.44;4972641;28;20053;-64
2022/12/14 09:06:22;;;;;;;2.53;0.88;;;;;;;4.02;80.93;102222.38;4973582;28;20041;-64
2022/12/14 09:08:48;;;;;;;2.67;1.25;;;;;;;3.96;80.83;102225.56;4972919;28;20026;-63
2022/12/14 09:11:16;;;;;;;3.88;1.10;;;;;;;4.09;80.54;102222.69;4972306;28;20034;-63
2022/12/14 09:13:43;;;;;;;1.70;0.90;;;;;;;3.90;81.33;102218.13;4991032;28;20048;-63
2022/12/14 09:16:27;;;;;;;3.30;1.30;;;;;;;3.75;81.87;102214.94;5011817;28;20382;-64
2022/12/14 09:18:54;;;;;;;2.55;0.80;;;;;;;3.81;81.76;102222.38;5011909;28;20072;-64
2022/12/14 09:21:21;;;;;;;3.72;1.23;;;;;;;3.82;81.56;102216.09;4992181;28;20031;-64
2022/12/14 09:23:47;;;;;;;2.15;1.20;;;;;;;3.82;81.40;102228.50;4989029;28;20114;-64
2022/12/14 09:26:22;;;;;;;3.38;1.17;;;;;;;3.82;81.26;102231.97;4990251;28;20034;-64
2022/12/14 09:28:54;;;;;;;1.73;0.98;;;;;;;3.75;80.68;102225.53;4990693;28;20134;-64
2022/12/14 09:31:23;;;;;;;4.35;2.00;;;;;;;3.84;80.19;102230.06;4991801;28;20038;-63
2022/12/14 09:33:50;;;;;;;2.55;1.83;;;;;;;3.78;80.31;102227.94;5011599;28;20040;-63
2022/12/14 09:36:22;;;;;;;3.15;2.00;;;;;;;3.74;80.22;102229.16;5002573;28;20033;-63
2022/12/14 09:38:48;;;;;;;5.93;1.45;;;;;;;3.69;80.18;102226.88;4991030;28;20034;-64
2022/12/14 09:41:35;;;;;;;3.15;1.20;;;;;;;3.72;80.17;102231.09;4994232;28;20029;-64
2022/12/14 09:44:20;;;;;;;4.75;1.92;;;;;;;3.70;80.01;102230.34;4995377;28;20030;-64
2022/12/14 09:46:52;;;;;;;2.97;1.50;;;;;;;3.69;79.74;102224.22;4995630;28;20100;-63
2022/12/14 09:49:28;;;;;;;3.85;1.30;;;;;;;3.69;79.50;102228.69;5011756;28;20124;-64
2022/12/14 09:51:57;;;;;;;2.83;1.17;;;;;;;3.71;79.41;102232.03;5014613;28;20026;-64
2022/12/14 09:54:33;;;;;;;2.92;0.90;;;;;;;3.80;78.98;102227.78;5013519;28;20153;-64
2022/12/14 09:57:08;;;;;;;2.72;0.98;;;;;;;3.68;79.59;102227.00;4995149;28;20120;-63
2022/12/14 09:59:34;;;;;;;3.10;0.87;;;;;;;3.60;79.79;102232.09;4992844;28;20584;-63
2022/12/14 10:02:23;;;;;;;3.72;1.15;;;;;;;3.41;81.07;102238.06;4993574;28;20049;-64
2022/12/14 10:05:08;;;;;;;3.40;1.17;;;;;;;3.54;80.47;102244.00;4992848;28;20053;-63
2022/12/14 10:07:48;;;;;;;2.65;0.95;;;;;;;3.49;80.66;102240.06;4990898;28;20027;-63
2022/12/14 10:11:15;;;;;;;3.13;1.00;;;;;;;3.55;80.36;102228.97;4980983;28;20098;-63
2022/12/14 10:14:16;;;;;;;3.58;0.95;;;;;;;3.57;80.19;102240.28;4950817;28;20515;-63
2022/12/14 10:16:48;;;;;;;2.08;1.08;;;;;;;3.59;80.17;102248.94;4952953;28;20041;-63
2022/12/14 10:19:36;;;;;;;1.88;0.73;;;;;;;3.64;80.11;102249.41;4982572;28;20039;-64
2022/12/14 10:22:15;;;;;;;2.75;1.60;;;;;;;3.65;79.64;102249.28;4980260;28;20030;-63
2022/12/14 10:24:50;;;;;;;5.28;2.40;;;;;;;3.69;79.58;102249.88;4986505;28;20482;-64
2022/12/14 10:27:28;;;;;;;5.85;3.10;;;;;;;3.63;79.41;102247.72;4991962;28;20078;-63
2022/12/14 10:30:01;;;;;;;7.78;4.25;;;;;;;3.61;79.29;102245.22;4980038;28;20080;-64
2022/12/14 10:32:35;;;;;;;7.35;4.25;;;;;;;3.50;79.86;102241.75;4993340;28;20042;-64
2022/12/14 10:35:16;;;;;;;7.03;5.10;;;;;;;3.50;79.72;102231.16;4981213;28;20034;-63
2022/12/14 10:37:47;;;;;;;6.97;4.93;;;;;;;3.44;79.73;102229.84;4992645;28;20416;-64
2022/12/14 10:40:25;;;;;;;3.75;2.65;;;;;;;3.42;79.96;102219.41;4992592;28;20027;-64
2022/12/14 10:43:16;;;;;;;3.63;1.70;;;;;;;3.41;80.73;102230.94;4993527;28;20030;-63
2022/12/14 10:46:01;;;;;;;2.22;1.40;;;;;;;3.30;81.49;102225.69;4991595;28;20030;-63
2022/12/14 10:48:49;;;;;;;4.18;1.40;;;;;;;3.25;81.89;102227.03;4992979;28;20030;-63
2022/12/14 10:51:18;;;;;;;5.00;1.42;;;;;;;3.30;82.00;102223.03;4989031;28;20125;-63
2022/12/14 10:54:05;;;;;;;2.47;1.33;;;;;;;3.59;80.50;102225.94;4992654;28;20112;-63
2022/12/14 10:56:34;;;;;;;3.90;1.20;;;;;;;3.46;80.68;102224.44;4962706;28;20042;-63
2022/12/14 10:59:25;;;;;;;2.80;0.90;;;;;;;3.47;81.07;102220.84;4992341;28;20031;-63
2022/12/14 11:02:12;;;;;;;1.80;0.75;;;;;;;3.45;81.18;102223.63;4981485;28;20055;-63
2022/12/14 11:04:49;;;;;;;2.67;1.15;;;;;;;3.43;80.83;102223.72;4990218;28;20062;-63
2022/12/14 11:07:18;;;;;;;3.25;1.15;;;;;;;3.32;80.96;102218.47;4990155;28;20486;-63
2022/12/14 11:09:45;;;;;;;2.55;1.52;;;;;;;3.42;80.64;102224.69;5013181;28;20418;-63
2022/12/14 11:12:18;;;;;;;5.78;4.32;;;;;;;3.39;80.14;102219.66;4999152;28;20037;-63
2022/12/14 11:14:55;;;;;;;12.30;8.25;;;;;;;3.39;79.79;102230.25;4993576;28;20475;-63
2022/12/14 11:17:43;;;;;;;8.82;7.68;;;;;;;3.30;79.84;102228.34;4994013;28;20026;-64
2022/12/14 11:20:21;;;;;;;9.50;8.48;;;;;;;3.33;79.54;102225.47;4993236;28;20117;-63
2022/12/14 11:23:16;;;;;;;10.30;9.13;;;;;;;3.13;80.32;102223.56;4979560;28;20043;-63
2022/12/14 11:25:45;;;;;;;10.57;8.23;;;;;;;3.10;80.28;102229.09;5012167;28;20026;-64
2022/12/14 11:28:18;;;;;;;8.82;7.93;;;;;;;3.14;79.88;102222.59;5013680;28;20029;-64
2022/12/14 11:30:57;;;;;;;6.88;5.68;;;;;;;3.12;79.95;102222.75;5013219;28;20030;-64
2022/12/14 11:33:38;;;;;;;5.75;5.13;;;;;;;3.29;79.72;102221.38;5014191;28;20025;-63
2022/12/14 11:36:08;;;;;;;9.02;7.68;;;;;;;3.30;79.39;102219.56;5013637;28;20034;-64
2022/12/14 11:38:35;;;;;;;9.52;7.57;;;;;;;3.17;79.69;102219.72;4992609;28;20023;-64
2022/12/14 11:41:03;;;;;;;9.63;7.20;;;;;;;3.10;79.58;102210.56;4973840;28;20038;-63
2022/12/14 11:43:37;;;;;;;6.97;5.97;;;;;;;3.27;79.16;102220.63;4973739;28;20033;-64
2022/12/14 11:46:04;;;;;;;8.73;6.00;;;;;;;3.26;78.79;102212.84;4973975;28;20031;-64
2022/12/14 11:48:33;;;;;;;8.63;6.85;;;;;;;3.12;79.00;102206.03;4973896;28;20622;-63
2022/12/14 11:51:13;;;;;;;8.90;6.75;;;;;;;3.03;79.11;102204.94;4973764;28;20022;-64
2022/12/14 11:53:40;;;;;;;8.52;6.45;;;;;;;2.97;79.28;102205.44;4973706;28;20118;-63
2022/12/14 11:56:13;;;;;;;7.88;6.18;;;;;;;2.98;79.34;102206.28;4974552;28;20062;-63
2022/12/14 11:58:49;;;;;;;7.72;6.35;;;;;;;2.95;79.08;102202.09;4973713;28;20068;-64
2022/12/14 12:01:19;;;;;;;14.65;6.03;;;;;;;2.92;79.55;102204.97;5007533;28;20466;-64
2022/12/14 12:03:49;;;;;;;8.40;5.60;;;;;;;2.87;79.23;102197.41;5011869;28;20050;-63
2022/12/14 12:06:21;;;;;;;8.05;4.90;;;;;;;2.88;79.12;102191.13;4996314;28;20487;-63
2022/12/14 12:08:55;;;;;;;4.95;3.30;;;;;;;2.90;79.60;102196.31;4991391;28;20513;-63